Time;durP1;ratioP1;P1;durP2;ratioP2;P2;SDS_P1;SDS_P2;PMS_P1;PMS_P2;Temp;Humidity;BMP_temperature;BMP_pressure;BME280_temperature;BME280_humidity;BME280_pressure;Samples;Min_cycle;Max_cycle;Signal;HPM_P1;HPM_P2
2023/04/01 00:03:17;;;;;;;2.10;0.82;;;;;;;9.52;72.54;96130.06;9851423;30;20044;-80
2023/04/01 00:08:39;;;;;;;2.40;0.30;;;;;;;9.51;72.02;96125.84;9862268;30;20198;-80
2023/04/01 00:14:00;;;;;;;2.38;0.30;;;;;;;9.47;72.49;96131.97;9851869;30;20052;-80
2023/04/01 00:19:21;;;;;;;2.70;0.30;;;;;;;9.43;71.85;96124.13;9851951;30;20052;-80
2023/04/01 00:24:42;;;;;;;1.80;0.35;;;;;;;9.40;71.81;96121.88;9852154;30;20044;-81
2023/04/01 00:30:03;;;;;;;2.38;0.30;;;;;;;9.35;71.95;96115.41;9852600;30;20434;-81
2023/04/01 00:35:24;;;;;;;1.77;0.35;;;;;;;9.28;71.99;96110.91;9853278;30;20056;-81
2023/04/01 00:40:46;;;;;;;1.67;0.25;;;;;;;9.26;71.81;96119.16;9862062;30;20028;-81
2023/04/01 00:46:07;;;;;;;1.17;0.25;;;;;;;9.21;72.09;96114.75;9853065;30;20060;-81
2023/04/01 00:51:28;;;;;;;2.30;0.17;;;;;;;9.13;72.28;96120.66;9851823;30;20032;-80
2023/04/01 00:57:04;;;;;;;0.90;0.20;;;;;;;8.99;72.52;96120.00;9850463;30;20427;-80
2023/04/01 01:02:25;;;;;;;1.23;0.17;;;;;;;8.83;73.02;96106.03;9838522;30;20029;-81
2023/04/01 01:07:52;;;;;;;1.88;0.20;;;;;;;8.75;73.16;96118.81;9846719;30;20058;-80
2023/04/01 01:13:34;;;;;;;4.13;0.45;;;;;;;8.70;73.20;96123.50;9856608;30;20069;-80
2023/04/01 01:19:00;;;;;;;0.70;0.17;;;;;;;8.68;73.41;96115.03;9846325;30;20100;-80
2023/04/01 01:24:21;;;;;;;1.10;0.30;;;;;;;8.69;73.57;96116.50;9849314;30;20052;-80
2023/04/01 01:29:48;;;;;;;1.48;0.30;;;;;;;8.69;73.47;96110.94;9860983;30;20048;-80
2023/04/01 01:35:43;;;;;;;1.90;0.22;;;;;;;8.74;73.83;96114.59;9846117;30;20051;-80
2023/04/01 01:41:09;;;;;;;0.88;0.13;;;;;;;8.74;73.83;96115.31;9849066;30;20059;-80
2023/04/01 01:46:31;;;;;;;2.28;0.30;;;;;;;8.78;73.96;96100.88;9846814;30;20067;-81
2023/04/01 01:51:52;;;;;;;1.77;0.20;;;;;;;8.81;74.24;96116.34;9844688;30;20044;-81
2023/04/01 01:57:13;;;;;;;2.10;0.20;;;;;;;8.77;73.97;96119.63;9833487;30;20053;-80
2023/04/01 02:02:38;;;;;;;1.25;0.20;;;;;;;8.74;74.26;96117.41;9834562;30;20048;-80
2023/04/01 02:08:03;;;;;;;1.15;0.20;;;;;;;8.74;74.92;96109.75;9847171;30;20049;-80
2023/04/01 02:13:52;;;;;;;0.80;0.10;;;;;;;8.70;74.74;96123.50;9847627;30;20048;-80
2023/04/01 02:19:13;;;;;;;1.48;0.10;;;;;;;8.67;74.98;96127.50;9848096;30;20048;-81
2023/04/01 02:24:35;;;;;;;1.52;0.20;;;;;;;8.63;75.15;96126.59;9847159;30;20057;-81
2023/04/01 02:29:56;;;;;;;1.15;0.10;;;;;;;8.61;75.78;96130.00;9860271;30;20079;-80
2023/04/01 02:35:17;;;;;;;2.22;0.40;;;;;;;8.58;75.52;96134.72;9847243;30;20077;-80
2023/04/01 02:40:43;;;;;;;4.03;0.30;;;;;;;8.56;75.64;96134.63;9846934;30;20060;-80
2023/04/01 02:46:04;;;;;;;1.80;0.20;;;;;;;8.60;76.29;96148.03;9862434;30;20094;-81
2023/04/01 02:51:25;;;;;;;1.88;0.38;;;;;;;8.61;75.90;96146.69;9854322;30;20044;-81
2023/04/01 02:56:46;;;;;;;1.80;0.20;;;;;;;8.68;75.76;96142.13;9853154;30;20044;-81
2023/04/01 03:02:07;;;;;;;1.55;0.20;;;;;;;8.72;75.76;96165.31;9854144;30;20060;-80
2023/04/01 03:07:28;;;;;;;2.78;0.65;;;;;;;8.77;75.88;96161.38;9852762;30;20044;-81
2023/04/01 03:12:49;;;;;;;1.02;0.20;;;;;;;8.82;75.55;96163.03;9852274;30;20056;-80
2023/04/01 03:18:10;;;;;;;1.48;0.28;;;;;;;8.85;75.09;96159.00;9852038;30;20077;-80
2023/04/01 03:23:31;;;;;;;2.42;0.22;;;;;;;8.89;75.45;96173.13;9857128;30;20048;-81
2023/04/01 03:28:52;;;;;;;1.67;0.40;;;;;;;8.92;74.71;96170.41;9868346;30;20091;-80
2023/04/01 03:34:13;;;;;;;1.17;0.20;;;;;;;8.93;75.05;96166.28;9879567;30;20043;-81
2023/04/01 03:39:36;;;;;;;3.80;0.35;;;;;;;8.92;74.78;96181.56;9870902;30;20051;-81
2023/04/01 03:44:57;;;;;;;5.50;0.30;;;;;;;8.93;74.82;96177.44;9887652;30;20067;-81
2023/04/01 03:50:17;;;;;;;1.48;0.25;;;;;;;8.92;74.48;96181.56;9875934;30;20051;-81
2023/04/01 03:55:39;;;;;;;3.20;0.40;;;;;;;8.93;74.25;96188.56;9872185;30;20047;-81
2023/04/01 04:01:01;;;;;;;2.13;0.38;;;;;;;8.94;74.53;96193.50;9888781;30;20055;-80
2023/04/01 04:06:23;;;;;;;3.92;0.40;;;;;;;8.92;74.21;96190.63;9875276;30;20056;-80
2023/04/01 04:11:45;;;;;;;2.42;0.30;;;;;;;8.88;73.81;96188.38;9884751;30;20043;-81
2023/04/01 04:17:08;;;;;;;1.80;0.40;;;;;;;8.89;73.71;96200.22;9873595;30;20058;-80
2023/04/01 04:22:29;;;;;;;2.85;0.38;;;;;;;8.89;73.80;96211.34;9872488;30;20103;-81
2023/04/01 04:27:50;;;;;;;4.07;0.35;;;;;;;8.92;74.00;96212.16;9864771;30;20087;-81
2023/04/01 04:33:11;;;;;;;2.15;0.22;;;;;;;8.90;73.56;96212.78;9870754;30;20388;-81
2023/04/01 04:38:33;;;;;;;1.88;0.30;;;;;;;8.87;73.83;96214.00;9873159;30;20055;-81
2023/04/01 04:43:55;;;;;;;4.15;0.50;;;;;;;8.88;73.89;96223.81;9869631;29;20059;-80
2023/04/01 04:49:18;;;;;;;1.63;0.30;;;;;;;8.88;73.66;96213.41;9873558;30;20058;-81
2023/04/01 04:54:39;;;;;;;6.05;1.23;;;;;;;8.89;73.41;96214.84;9872137;30;20289;-81
2023/04/01 05:00:00;;;;;;;4.43;0.65;;;;;;;8.92;73.63;96228.84;9875910;30;20059;-80
2023/04/01 05:05:49;;;;;;;2.08;0.35;;;;;;;8.98;73.57;96223.59;9865045;30;20082;-80
2023/04/01 05:11:16;;;;;;;2.10;0.50;;;;;;;9.03;73.40;96223.16;9866103;30;20047;-81
2023/04/01 05:16:37;;;;;;;4.97;0.70;;;;;;;9.04;73.09;96227.38;9880051;30;20058;-80
2023/04/01 05:21:58;;;;;;;1.40;0.28;;;;;;;9.06;73.08;96226.75;9876076;30;20389;-80
2023/04/01 05:27:19;;;;;;;2.92;0.60;;;;;;;9.14;72.70;96229.94;9871993;30;20048;-80
2023/04/01 05:32:40;;;;;;;4.63;0.43;;;;;;;9.30;72.71;96230.00;9883231;30;20047;-81
2023/04/01 05:38:02;;;;;;;2.67;0.60;;;;;;;9.46;72.60;96225.94;9872751;30;20063;-81
2023/04/01 05:43:23;;;;;;;2.63;0.50;;;;;;;9.58;71.39;96236.22;9865721;30;20049;-80
2023/04/01 05:48:46;;;;;;;6.03;1.90;;;;;;;9.49;71.38;96234.38;9859795;30;20044;-80
2023/04/01 05:54:07;;;;;;;3.50;0.90;;;;;;;9.58;71.38;96239.00;9855360;30;20058;-80
2023/04/01 05:59:31;;;;;;;2.92;1.27;;;;;;;9.68;71.24;96240.19;9860402;30;20059;-80
2023/04/01 06:04:59;;;;;;;2.38;0.63;;;;;;;9.92;71.34;96237.06;9868285;30;20044;-81
2023/04/01 06:10:20;;;;;;;3.85;0.70;;;;;;;10.13;69.79;96227.56;9864743;30;20044;-80
2023/04/01 06:15:54;;;;;;;1.77;0.43;;;;;;;10.33;69.27;96231.31;9882221;30;20043;-81
2023/04/01 06:21:37;;;;;;;2.97;0.70;;;;;;;10.83;68.75;96240.41;9837018;30;20051;-80
2023/04/01 06:27:40;;;;;;;5.70;0.70;;;;;;;11.54;68.64;96243.31;9826038;30;20083;-78
2023/04/01 06:33:16;;;;;;;4.25;0.95;;;;;;;12.32;66.74;96256.09;9844560;30;20055;-81
2023/04/01 06:38:46;;;;;;;2.60;0.47;;;;;;;13.21;63.64;96254.31;9854118;30;20056;-80
2023/04/01 06:44:18;;;;;;;3.72;0.50;;;;;;;13.70;62.47;96251.75;9829377;30;20064;-80
2023/04/01 06:50:07;;;;;;;2.28;0.30;;;;;;;13.92;59.25;96248.91;9863408;30;20037;-82
2023/04/01 06:56:34;;;;;;;2.65;0.40;;;;;;;13.80;59.63;96256.22;11596752;24;21225;31
2023/04/01 07:02:10;;;;;;;2.95;0.30;;;;;;;12.82;59.03;96270.50;10026992;24;20059;-81
2023/04/01 07:07:41;;;;;;;2.63;0.25;;;;;;;12.52;60.61;96277.81;9824900;30;20066;-80
2023/04/01 07:13:06;;;;;;;1.70;0.40;;;;;;;13.22;59.35;96264.91;9796684;30;20053;-80
2023/04/01 07:19:03;;;;;;;1.15;0.20;;;;;;;14.68;58.68;96273.59;9807118;30;20053;-80
2023/04/01 07:24:41;;;;;;;3.10;0.20;;;;;;;17.46;53.07;96279.94;9794062;30;20048;-84
2023/04/01 07:30:06;;;;;;;1.77;0.30;;;;;;;23.79;45.41;96276.88;9769956;30;20083;-82
2023/04/01 07:35:28;;;;;;;1.13;0.20;;;;;;;22.35;40.98;96286.75;9776514;30;20119;-77
2023/04/01 07:41:22;;;;;;;1.63;0.30;;;;;;;21.55;39.59;96296.69;9796316;30;20116;-77
2023/04/01 07:47:03;;;;;;;1.65;0.20;;;;;;;19.84;39.11;96284.44;9789341;30;20053;-76
2023/04/01 07:52:33;;;;;;;3.55;0.30;;;;;;;19.03;40.93;96293.56;9777832;30;20105;-76
2023/04/01 07:58:37;;;;;;;2.15;0.30;;;;;;;19.79;38.28;96300.00;9799507;30;20045;-75
2023/04/01 08:04:42;;;;;;;1.10;0.20;;;;;;;18.36;39.06;96298.31;9740807;30;20061;-75
2023/04/01 08:10:13;;;;;;;1.70;0.30;;;;;;;17.49;40.13;96300.44;9752176;30;20052;-77
2023/04/01 08:16:18;;;;;;;1.02;0.20;;;;;;;17.90;39.92;96296.22;9745495;30;20507;-76
2023/04/01 08:21:52;;;;;;;1.45;0.20;;;;;;;18.12;41.06;96300.78;9742211;30;20115;-76
2023/04/01 08:27:21;;;;;;;2.65;0.38;;;;;;;23.84;34.71;96314.63;9742299;30;20467;-77
2023/04/01 08:32:51;;;;;;;0.98;0.28;;;;;;;26.69;31.37;96305.31;9755813;30;20075;-78
2023/04/01 08:38:20;;;;;;;2.97;0.20;;;;;;;28.89;28.14;96308.97;9782320;30;20080;-82
2023/04/01 08:44:09;;;;;;;0.50;0.20;;;;;;;28.92;24.37;96310.31;9775787;30;20079;-82
2023/04/01 08:49:40;;;;;;;2.70;0.30;;;;;;;24.12;26.55;96317.22;9799025;30;20395;-82
2023/04/01 08:55:45;;;;;;;1.58;0.30;;;;;;;21.68;29.91;96313.00;9797287;30;20053;-82
2023/04/01 09:01:41;;;;;;;2.17;0.40;;;;;;;20.09;31.57;96322.19;9772476;30;20139;-82
2023/04/01 09:07:49;;;;;;;2.70;0.30;;;;;;;18.68;33.70;96311.47;9776916;30;20045;-82
2023/04/01 09:13:35;;;;;;;3.08;0.20;;;;;;;17.73;34.51;96322.75;9761811;30;20055;-82
2023/04/01 09:19:16;;;;;;;0.90;0.20;;;;;;;17.53;36.03;96323.06;9787038;30;20575;-91
2023/04/01 09:25:00;;;;;;;2.40;0.30;;;;;;;16.79;37.89;96326.63;9774427;30;20048;-86
2023/04/01 09:30:41;;;;;;;1.60;0.60;;;;;;;17.40;37.77;96324.25;9786190;30;20137;-85
2023/04/01 09:36:11;;;;;;;0.98;0.20;;;;;;;17.86;36.91;96327.22;9775436;30;20480;-89
2023/04/01 09:41:36;;;;;;;3.25;0.30;;;;;;;18.12;36.95;96315.59;9785977;30;20082;-88
2023/04/01 09:47:27;;;;;;;2.63;0.20;;;;;;;19.49;35.85;96318.06;9774069;30;20528;-87
2023/04/01 09:53:04;;;;;;;1.27;0.20;;;;;;;21.52;34.71;96329.31;9785687;30;20454;-84
2023/04/01 09:58:38;;;;;;;0.68;0.20;;;;;;;23.59;30.64;96329.00;9774016;30;20049;-84
2023/04/01 10:05:00;;;;;;;0.75;0.10;;;;;;;21.24;30.81;96333.47;9788737;30;20140;-82
2023/04/01 10:10:43;;;;;;;1.20;0.20;;;;;;;18.44;34.20;96335.16;9783606;30;20500;-84
2023/04/01 10:16:24;;;;;;;2.35;0.28;;;;;;;17.85;35.92;96336.34;9785057;30;20087;-80
2023/04/01 10:22:23;;;;;;;0.60;0.10;;;;;;;22.04;33.27;96327.97;9800219;30;20135;-80
2023/04/01 10:28:15;;;;;;;0.90;0.20;;;;;;;26.25;28.52;96333.97;9802841;30;20476;-83
2023/04/01 10:34:33;;;;;;;2.03;0.20;;;;;;;28.64;23.67;96326.09;9788513;30;20139;-81
2023/04/01 10:40:09;;;;;;;0.32;0.10;;;;;;;27.01;25.09;96327.59;9770154;30;20080;-81
2023/04/01 10:46:36;;;;;;;0.55;0.10;;;;;;;28.27;21.82;96329.16;9772789;30;20149;-85
2023/04/01 10:52:19;;;;;;;0.65;0.20;;;;;;;26.81;21.94;96331.53;9809063;30;20393;-83
2023/04/01 10:58:11;;;;;;;0.95;0.20;;;;;;;22.32;25.25;96332.94;9818369;30;20048;-84
2023/04/01 11:04:12;;;;;;;0.32;0.10;;;;;;;19.87;29.03;96339.69;9818632;30;20060;-84
2023/04/01 11:10:27;;;;;;;0.77;0.20;;;;;;;19.22;31.83;96339.72;9766011;30;20782;-80
2023/04/01 11:16:27;;;;;;;0.45;0.10;;;;;;;19.16;32.59;96323.38;9822809;30;20055;-80
2023/04/01 11:22:26;;;;;;;1.77;0.20;;;;;;;20.01;32.81;96331.31;9822219;30;20098;-81
2023/04/01 11:28:30;;;;;;;0.28;0.00;;;;;;;20.56;31.46;96326.78;9821922;30;20477;-77
2023/04/01 11:33:55;;;;;;;1.37;0.10;;;;;;;20.58;31.77;96334.59;9808587;30;20105;-88
2023/04/01 11:39:41;;;;;;;0.80;0.20;;;;;;;20.04;31.73;96332.03;9806498;30;20044;-88
2023/04/01 11:45:46;;;;;;;0.73;0.17;;;;;;;18.82;33.44;96339.94;9820972;30;20476;-87
2023/04/01 11:51:15;;;;;;;0.88;0.17;;;;;;;18.51;34.11;96345.13;9798184;30;20556;-88
2023/04/01 11:57:07;;;;;;;0.70;0.20;;;;;;;19.08;33.89;96331.78;9821363;30;20135;-88
2023/04/01 12:02:47;;;;;;;3.30;0.20;;;;;;;19.20;33.66;96336.13;9812078;30;20512;-89
2023/04/01 12:08:23;;;;;;;0.82;0.17;;;;;;;19.03;33.48;96333.13;9822747;30;20117;-87
2023/04/01 12:14:03;;;;;;;1.63;0.25;;;;;;;18.76;34.54;96348.34;9822462;30;20044;-87
2023/04/01 12:19:35;;;;;;;0.50;0.10;;;;;;;18.34;35.23;96354.78;9810568;30;20051;-88
2023/04/01 12:25:19;;;;;;;0.80;0.20;;;;;;;17.94;35.83;96352.72;9810679;30;20385;-89
2023/04/01 12:31:11;;;;;;;0.55;0.10;;;;;;;17.48;36.28;96363.19;9803413;30;20090;-87
2023/04/01 12:36:51;;;;;;;0.68;0.10;;;;;;;17.58;36.87;96349.97;9820216;30;20087;-86
2023/04/01 12:42:34;;;;;;;0.70;0.17;;;;;;;17.88;36.54;96354.75;9834736;30;20103;-89
2023/04/01 12:48:27;;;;;;;1.13;0.20;;;;;;;17.83;36.90;96356.78;9821189;30;20738;-87
2023/04/01 12:53:59;;;;;;;0.88;0.20;;;;;;;18.27;36.35;96351.16;9809301;30;20044;-88
2023/04/01 12:59:32;;;;;;;1.85;0.20;;;;;;;18.09;36.04;96359.31;9804709;30;20040;-89
2023/04/01 13:05:10;;;;;;;0.70;0.20;;;;;;;17.24;36.80;96361.31;9808977;30;20536;-89
2023/04/01 13:10:37;;;;;;;1.27;0.20;;;;;;;16.80;38.20;96353.41;9797732;30;20508;-86
2023/04/01 13:16:01;;;;;;;0.77;0.20;;;;;;;17.09;38.26;96359.63;9791777;30;20127;-88
2023/04/01 13:21:57;;;;;;;1.50;0.28;;;;;;;17.47;38.51;96354.00;9773072;30;20132;-84
2023/04/01 13:27:49;;;;;;;1.50;0.30;;;;;;;18.07;37.61;96355.75;9779289;30;20121;-80
2023/04/01 13:33:20;;;;;;;0.95;0.30;;;;;;;18.16;37.36;96349.56;9777641;30;20094;-90
2023/04/01 13:38:50;;;;;;;0.98;0.20;;;;;;;17.87;37.10;96356.16;9774960;30;20102;-84
2023/04/01 13:44:17;;;;;;;1.05;0.20;;;;;;;17.50;37.51;96349.13;9786728;30;20052;-90
2023/04/01 13:57:37;;;;;;;0.57;0.20;;;;;;;16.74;39.20;96350.44;10288228;24;20103;-86
2023/04/01 14:13:17;;;;;;;0.32;0.20;;;;;;;17.26;38.63;96350.06;9818766;30;20057;-86
2023/04/01 14:31:38;;;;;;;1.08;0.20;;;;;;;15.50;42.61;96353.09;11572224;24;20065;-77
2023/04/01 14:37:16;;;;;;;0.93;0.20;;;;;;;15.31;42.96;96368.03;9788428;30;20053;-76
2023/04/01 14:42:49;;;;;;;1.83;0.20;;;;;;;15.34;43.75;96369.50;9790334;30;20048;-76
2023/04/01 15:07:22;;;;;;;1.30;0.35;;;;;;;15.13;45.72;96366.16;10920355;24;20110;-78
2023/04/01 15:43:59;;;;;;;1.60;0.50;;;;;;;14.26;47.31;96400.75;11057010;24;20147;-79
2023/04/01 16:02:56;;;;;;;0.60;0.20;;;;;;;14.08;48.87;96408.59;11950071;24;20051;31
2023/04/01 16:17:12;;;;;;;0.47;0.20;;;;;;;13.58;50.23;96430.03;9773907;30;20042;-81
2023/04/01 16:23:00;;;;;;;0.50;0.20;;;;;;;13.43;50.29;96428.84;9735619;30;20085;-79
2023/04/01 16:50:27;;;;;;;3.53;0.77;;;;;;;12.85;51.40;96451.22;10952460;24;20044;-81
2023/04/01 16:56:04;;;;;;;1.30;0.30;;;;;;;12.67;52.33;96461.00;9876115;24;20053;-85
2023/04/01 17:01:48;;;;;;;0.80;0.20;;;;;;;12.51;53.14;96477.88;9783990;30;20056;-77
2023/04/01 17:07:28;;;;;;;1.00;0.32;;;;;;;12.32;54.20;96474.34;9777913;30;20053;-80
2023/04/01 17:13:40;;;;;;;1.88;0.80;;;;;;;12.18;55.52;96479.38;9786243;30;20064;-85
2023/04/01 17:19:13;;;;;;;1.90;0.75;;;;;;;12.03;55.20;96488.53;9768576;30;20072;-79
2023/04/01 17:25:05;;;;;;;1.73;0.80;;;;;;;11.93;55.21;96491.63;9787974;30;20052;-82
2023/04/01 17:49:38;;;;;;;1.38;0.63;;;;;;;11.63;58.82;96518.97;9872766;30;20079;-81
2023/04/01 17:55:48;;;;;;;1.30;0.60;;;;;;;11.63;60.07;96523.84;9879307;30;20063;-81
2023/04/01 18:02:10;;;;;;;2.38;0.60;;;;;;;11.55;59.24;96529.78;11062660;24;20832;-77
2023/04/01 18:07:45;;;;;;;3.90;1.50;;;;;;;11.60;59.08;96539.81;9789489;30;20048;-83
2023/04/01 18:13:26;;;;;;;3.40;1.50;;;;;;;11.57;60.17;96537.53;9778416;30;20387;-77
2023/04/01 18:18:50;;;;;;;;;;;;;;;11.45;60.69;96551.69;9758037;30;20060;-76
2023/04/01 18:24:10;;;;;;;1.50;0.60;;;;;;;11.37;60.45;96554.84;9769417;30;19927;-76
2023/04/01 18:29:40;;;;;;;1.50;0.60;;;;;;;11.32;60.17;96569.28;9771593;30;20049;-76
2023/04/01 18:35:19;;;;;;;2.50;1.00;;;;;;;11.29;61.21;96564.91;9774770;30;20053;-77
2023/04/01 18:40:46;;;;;;;1.35;0.70;;;;;;;11.22;60.98;96563.94;9761219;30;20053;-77
2023/04/01 18:46:17;;;;;;;1.25;0.47;;;;;;;11.20;61.14;96577.09;9759992;30;20052;-75
2023/04/01 18:51:48;;;;;;;1.73;0.47;;;;;;;11.10;61.94;96586.44;9772979;30;20134;-77
2023/04/01 18:57:16;;;;;;;1.73;0.68;;;;;;;11.02;63.28;96586.06;9760958;30;20116;-77
2023/04/01 19:02:41;;;;;;;2.28;0.93;;;;;;;11.00;62.71;96588.75;9759037;30;20111;-76
2023/04/01 19:08:30;;;;;;;1.25;0.60;;;;;;;10.95;63.71;96598.28;9721502;30;20053;-77
2023/04/01 19:14:05;;;;;;;1.65;0.70;;;;;;;10.88;63.97;96596.53;9733092;30;20056;-76
2023/04/01 19:19:54;;;;;;;2.92;1.40;;;;;;;10.87;64.42;96607.00;9735854;30;20493;-77
2023/04/01 19:25:18;;;;;;;3.17;1.10;;;;;;;10.86;65.03;96602.03;9763504;30;20056;-76
2023/04/01 19:30:45;;;;;;;;;;;;;;;10.82;65.66;96607.44;9778643;30;20497;-77
2023/04/01 19:36:29;;;;;;;2.38;1.23;;;;;;;10.82;65.86;96613.03;9781016;30;19931;-76
2023/04/01 19:41:53;;;;;;;2.80;1.67;;;;;;;10.76;65.94;96609.91;9768475;30;20173;-77
2023/04/01 19:47:33;;;;;;;2.53;1.27;;;;;;;10.70;65.75;96629.88;9776004;30;20077;-77
2023/04/01 19:52:56;;;;;;;1.90;0.93;;;;;;;10.64;66.46;96623.28;9757194;30;20053;-75
2023/04/01 19:58:28;;;;;;;2.72;1.00;;;;;;;10.62;66.59;96629.50;9759665;30;20053;-76
2023/04/01 20:03:58;;;;;;;3.53;1.00;;;;;;;10.59;66.99;96631.44;9768160;30;20060;-78
2023/04/01 20:09:38;;;;;;;2.60;1.00;;;;;;;10.57;67.53;96631.34;9758556;30;20477;-77
2023/04/01 20:14:59;;;;;;;2.17;0.95;;;;;;;10.57;67.68;96636.22;9808124;30;20056;-80
2023/04/01 20:20:25;;;;;;;2.42;0.82;;;;;;;10.56;67.92;96643.13;9801387;30;20033;-78
2023/04/01 20:25:52;;;;;;;3.05;1.35;;;;;;;10.51;67.48;96645.00;9797641;30;20056;-82
2023/04/01 20:31:26;;;;;;;2.30;1.05;;;;;;;10.51;68.15;96645.00;9795288;30;20060;-80
2023/04/01 20:37:25;;;;;;;2.92;1.40;;;;;;;10.46;68.93;96651.72;9778714;30;20061;-78
2023/04/01 20:57:02;;;;;;;1.70;0.73;;;;;;;10.38;69.06;96656.91;9877772;29;20453;-78
2023/04/01 21:02:41;;;;;;;1.60;0.80;;;;;;;10.30;69.47;96651.63;9845961;30;20514;-78
2023/04/01 21:08:06;;;;;;;1.80;0.70;;;;;;;10.23;69.97;96652.66;9843109;30;20103;-78
2023/04/01 21:13:36;;;;;;;1.75;0.82;;;;;;;10.16;69.83;96659.25;9837889;30;20057;-79
2023/04/01 21:19:12;;;;;;;2.42;0.95;;;;;;;10.14;70.86;96661.22;9889516;29;20071;-80
2023/04/01 21:24:36;;;;;;;2.53;0.90;;;;;;;10.13;70.47;96668.09;9897792;29;20043;-82
2023/04/01 21:30:20;;;;;;;1.52;0.60;;;;;;;10.06;70.92;96671.94;9909813;29;20040;-83
2023/04/01 21:36:08;;;;;;;2.63;0.80;;;;;;;10.03;71.33;96679.47;10637363;24;20113;-80
2023/04/01 21:41:44;;;;;;;3.05;0.70;;;;;;;10.02;71.44;96687.09;9830085;30;20056;-79
2023/04/01 21:47:29;;;;;;;1.63;0.60;;;;;;;9.99;71.73;96685.56;9845360;30;20071;-80
2023/04/01 21:53:24;;;;;;;1.73;0.70;;;;;;;9.97;72.09;96682.66;9836443;30;20110;-77
2023/04/01 21:58:45;;;;;;;;;;;;;;;9.96;72.69;96686.06;9836139;30;20048;-77
2023/04/01 22:04:26;;;;;;;2.00;0.90;;;;;;;9.95;72.96;96677.00;9822997;30;20370;-77
2023/04/01 22:10:05;;;;;;;1.85;0.70;;;;;;;9.98;72.28;96689.69;9813461;30;20527;-77
2023/04/01 22:15:44;;;;;;;3.13;0.57;;;;;;;9.96;72.57;96692.38;9752865;30;20061;-77
2023/04/01 22:21:29;;;;;;;1.52;0.70;;;;;;;9.98;72.37;96700.84;9753537;30;20061;-77
2023/04/01 22:26:59;;;;;;;0.90;0.32;;;;;;;10.00;72.66;96708.56;9738100;30;20084;-77
2023/04/01 22:32:45;;;;;;;0.88;0.40;;;;;;;10.07;72.50;96715.22;9768281;30;20182;-77
2023/04/01 22:38:19;;;;;;;1.20;0.55;;;;;;;10.13;72.78;96719.03;9813657;30;20132;-77
2023/04/01 22:43:41;;;;;;;0.65;0.40;;;;;;;10.18;72.91;96719.97;9808537;30;20076;-77
2023/04/01 22:49:22;;;;;;;0.88;0.40;;;;;;;10.15;72.56;96712.84;9800990;30;20086;-77
2023/04/01 22:54:48;;;;;;;2.10;0.73;;;;;;;10.16;72.74;96715.03;9798451;30;20071;-77
2023/04/01 23:00:18;;;;;;;1.67;0.22;;;;;;;10.16;72.89;96712.22;9798792;30;20132;-77
2023/04/01 23:05:43;;;;;;;2.25;0.40;;;;;;;10.16;73.28;96719.88;9837202;24;20080;-77
2023/04/01 23:11:06;;;;;;;0.80;0.40;;;;;;;10.16;73.06;96720.59;9809171;30;20086;-77
2023/04/01 23:16:36;;;;;;;2.50;0.45;;;;;;;10.13;73.33;96726.66;9809566;30;20098;-76
2023/04/01 23:22:16;;;;;;;1.23;0.52;;;;;;;10.15;73.69;96726.78;9822186;30;20080;-77
2023/04/01 23:27:40;;;;;;;1.02;0.40;;;;;;;10.13;73.86;96738.53;9810075;30;20087;-77
2023/04/01 23:33:19;;;;;;;1.15;0.40;;;;;;;10.09;73.91;96741.13;9821278;30;20484;-77
2023/04/01 23:38:41;;;;;;;1.05;0.40;;;;;;;10.07;74.06;96745.88;9832995;30;20079;-77
2023/04/01 23:44:05;;;;;;;0.75;0.40;;;;;;;10.06;74.05;96761.16;9808481;30;20083;-77
2023/04/01 23:49:40;;;;;;;1.05;0.40;;;;;;;10.06;74.21;96758.38;9808481;30;20102;-77
2023/04/01 23:55:11;;;;;;;1.23;0.50;;;;;;;10.08;74.19;96767.56;9820648;30;20515;-77
